This is the latest recevied weather packets stored in our database for station/object DG5MG. If no packets are shown the sender has not sent any weather packets the latest 10 day(s).
| Time | Temp. | Humidity | Pressure | Rain* | Wind** | Luminosity | Snow |
|---|---|---|---|---|---|---|---|
| 1777649104 | 20° C | 36% | 1028.8 hPa | 0 mm | - | 497 W/m² | - |
| 1777647305 | 20° C | 35% | 1028.8 hPa | 0 mm | - | 646 W/m² | - |
| 1777646104 | 21.11° C | 33% | 1029.1 hPa | 0 mm | - | 744 W/m² | - |
| 1777644604 | 20.56° C | 33% | 1029.1 hPa | 0 mm | - | 864 W/m² | - |
| 1777644004 | 20° C | 33% | 1029.1 hPa | 0 mm | - | 909 W/m² | - |
| 1777643104 | 20.56° C | 33% | 1029.1 hPa | 0 mm | - | 975 W/m² | - |
| 1777641906 | 20.56° C | 33% | 1029.5 hPa | 0 mm | - | 1056 W/m² | - |
| 1777641306 | 20.56° C | 33% | 1029.5 hPa | 0 mm | - | 1093 W/m² | - |
| 1777639506 | 20.56° C | 33% | 1029.8 hPa | 0 mm | - | 1188 W/m² | - |
| 1777637106 | 20° C | 34% | 1030.1 hPa | 0 mm | - | 1271 W/m² | - |
| 1777635306 | 19.44° C | 32% | 1030.1 hPa | 0 mm | - | 1297 W/m² | - |
| 1777630206 | 17.22° C | 32% | 1030.8 hPa | 0 mm | - | 1193 W/m² | - |
| 1777625706 | 13.89° C | 31% | 1030.8 hPa | 0 mm | - | 918 W/m² | - |
| 1777623907 | 13.33° C | 32% | 1030.5 hPa | 0 mm | - | 778 W/m² | - |
| 1777623306 | 13.33° C | 34% | 1030.8 hPa | 0 mm | - | 730 W/m² | - |
| 1777620007 | 11.11° C | 39% | 1030.5 hPa | 0 mm | - | 458 W/m² | - |
| 1777619106 | 11.11° C | 39% | 1030.5 hPa | 0 mm | - | 386 W/m² | - |
| 1777617606 | 8.33° C | 48% | 1030.5 hPa | 0 mm | - | 271 W/m² | - |
| 1777614606 | 6.11° C | 57% | 1030.5 hPa | 0 mm | - | 0 W/m² | - |
| 1777613706 | 5° C | 57% | 1030.5 hPa | 0 mm | - | 0 W/m² | - |
| 1777613106 | 5.56° C | 58% | 1030.5 hPa | 0 mm | - | 0 W/m² | - |
| 1777612806 | 5° C | 58% | 1030.5 hPa | 0 mm | - | 0 W/m² | - |
| 1777612505 | 5° C | 58% | 1030.5 hPa | 0 mm | - | 0 W/m² | - |
| 1777611906 | 4.44° C | 61% | 1030.5 hPa | 0 mm | - | 0 W/m² | - |
| 1777611605 | 4.44° C | 61% | 1030.4 hPa | 0 mm | - | 0 W/m² | - |
* Rain latest hour (hover to see other rain measurements)
** Current wind speed in m/s (hover to see current wind gust speed)